sensor_id;sensor_type;location;lat;lon;timestamp;P1;durP1;ratioP1;P2;durP2;ratioP2
29030;SDS011;16122;50.236;11.734;2024-03-08T00:01:53;9.27;;;8.27;;
29030;SDS011;16122;50.236;11.734;2024-03-08T00:04:19;12.60;;;8.30;;
29030;SDS011;16122;50.236;11.734;2024-03-08T00:06:44;8.97;;;7.73;;
29030;SDS011;16122;50.236;11.734;2024-03-08T00:09:14;12.20;;;8.10;;
29030;SDS011;16122;50.236;11.734;2024-03-08T00:11:40;8.50;;;7.60;;
29030;SDS011;16122;50.236;11.734;2024-03-08T00:14:06;10.50;;;7.47;;
29030;SDS011;16122;50.236;11.734;2024-03-08T00:16:33;9.57;;;7.90;;
29030;SDS011;16122;50.236;11.734;2024-03-08T00:19:00;9.53;;;8.20;;
29030;SDS011;16122;50.236;11.734;2024-03-08T00:21:26;12.53;;;8.00;;
29030;SDS011;16122;50.236;11.734;2024-03-08T00:23:52;10.10;;;8.27;;
29030;SDS011;16122;50.236;11.734;2024-03-08T00:26:20;11.63;;;7.47;;
29030;SDS011;16122;50.236;11.734;2024-03-08T00:28:47;10.77;;;8.33;;
29030;SDS011;16122;50.236;11.734;2024-03-08T00:31:14;11.00;;;7.70;;
29030;SDS011;16122;50.236;11.734;2024-03-08T00:33:42;10.17;;;8.43;;
29030;SDS011;16122;50.236;11.734;2024-03-08T00:39:55;9.53;;;8.00;;
29030;SDS011;16122;50.236;11.734;2024-03-08T00:42:21;11.27;;;8.40;;
29030;SDS011;16122;50.236;11.734;2024-03-08T00:44:47;9.80;;;8.30;;
29030;SDS011;16122;50.236;11.734;2024-03-08T00:47:16;11.20;;;8.23;;
29030;SDS011;16122;50.236;11.734;2024-03-08T00:49:42;10.10;;;8.43;;
29030;SDS011;16122;50.236;11.734;2024-03-08T00:52:07;9.33;;;7.20;;
29030;SDS011;16122;50.236;11.734;2024-03-08T00:54:34;9.37;;;8.20;;
29030;SDS011;16122;50.236;11.734;2024-03-08T00:57:03;10.20;;;7.97;;
29030;SDS011;16122;50.236;11.734;2024-03-08T00:59:29;9.97;;;7.90;;
29030;SDS011;16122;50.236;11.734;2024-03-08T01:01:59;9.30;;;7.50;;
29030;SDS011;16122;50.236;11.734;2024-03-08T01:04:25;8.87;;;7.17;;
29030;SDS011;16122;50.236;11.734;2024-03-08T01:06:54;9.80;;;7.77;;
29030;SDS011;16122;50.236;11.734;2024-03-08T01:09:22;9.57;;;7.80;;
29030;SDS011;16122;50.236;11.734;2024-03-08T01:11:48;9.63;;;8.53;;
29030;SDS011;16122;50.236;11.734;2024-03-08T01:14:14;10.40;;;7.50;;
29030;SDS011;16122;50.236;11.734;2024-03-08T01:16:40;9.40;;;8.07;;
29030;SDS011;16122;50.236;11.734;2024-03-08T01:19:06;9.33;;;7.07;;
29030;SDS011;16122;50.236;11.734;2024-03-08T01:21:32;9.30;;;8.37;;
29030;SDS011;16122;50.236;11.734;2024-03-08T01:23:59;9.70;;;8.20;;
29030;SDS011;16122;50.236;11.734;2024-03-08T01:26:25;8.27;;;7.13;;
29030;SDS011;16122;50.236;11.734;2024-03-08T01:28:51;9.70;;;7.77;;
29030;SDS011;16122;50.236;11.734;2024-03-08T01:31:18;9.23;;;8.23;;
29030;SDS011;16122;50.236;11.734;2024-03-08T01:33:43;8.40;;;7.60;;
29030;SDS011;16122;50.236;11.734;2024-03-08T01:36:09;7.63;;;6.93;;
29030;SDS011;16122;50.236;11.734;2024-03-08T01:38:35;9.43;;;7.30;;
29030;SDS011;16122;50.236;11.734;2024-03-08T01:41:01;9.93;;;7.07;;
29030;SDS011;16122;50.236;11.734;2024-03-08T01:43:28;9.90;;;8.23;;
29030;SDS011;16122;50.236;11.734;2024-03-08T01:45:55;8.90;;;7.53;;
29030;SDS011;16122;50.236;11.734;2024-03-08T01:48:27;8.10;;;7.30;;
29030;SDS011;16122;50.236;11.734;2024-03-08T01:50:54;11.73;;;8.10;;
29030;SDS011;16122;50.236;11.734;2024-03-08T01:53:24;10.30;;;8.37;;
29030;SDS011;16122;50.236;11.734;2024-03-08T01:55:52;7.83;;;7.13;;
29030;SDS011;16122;50.236;11.734;2024-03-08T01:58:21;10.30;;;8.63;;
29030;SDS011;16122;50.236;11.734;2024-03-08T02:00:48;10.47;;;8.33;;
29030;SDS011;16122;50.236;11.734;2024-03-08T02:03:17;8.80;;;7.53;;
29030;SDS011;16122;50.236;11.734;2024-03-08T02:05:43;9.83;;;7.93;;
29030;SDS011;16122;50.236;11.734;2024-03-08T02:08:09;10.87;;;8.80;;
29030;SDS011;16122;50.236;11.734;2024-03-08T02:10:41;10.10;;;7.93;;
29030;SDS011;16122;50.236;11.734;2024-03-08T02:13:08;9.33;;;8.10;;
29030;SDS011;16122;50.236;11.734;2024-03-08T02:15:54;11.30;;;7.50;;
29030;SDS011;16122;50.236;11.734;2024-03-08T02:18:20;8.40;;;7.20;;
29030;SDS011;16122;50.236;11.734;2024-03-08T02:20:47;8.33;;;7.23;;
29030;SDS011;16122;50.236;11.734;2024-03-08T02:23:17;7.60;;;6.90;;
29030;SDS011;16122;50.236;11.734;2024-03-08T02:25:44;9.10;;;7.10;;
29030;SDS011;16122;50.236;11.734;2024-03-08T02:28:11;10.47;;;8.17;;
29030;SDS011;16122;50.236;11.734;2024-03-08T02:30:38;8.30;;;7.10;;
29030;SDS011;16122;50.236;11.734;2024-03-08T02:33:04;7.20;;;6.50;;
29030;SDS011;16122;50.236;11.734;2024-03-08T02:35:31;9.20;;;7.60;;
29030;SDS011;16122;50.236;11.734;2024-03-08T02:37:57;8.87;;;6.90;;
29030;SDS011;16122;50.236;11.734;2024-03-08T02:40:23;8.63;;;7.67;;
29030;SDS011;16122;50.236;11.734;2024-03-08T02:42:49;9.80;;;7.70;;
29030;SDS011;16122;50.236;11.734;2024-03-08T02:45:15;9.17;;;7.77;;
29030;SDS011;16122;50.236;11.734;2024-03-08T02:47:41;8.57;;;6.87;;
29030;SDS011;16122;50.236;11.734;2024-03-08T02:50:07;9.90;;;7.67;;
29030;SDS011;16122;50.236;11.734;2024-03-08T02:52:33;8.00;;;7.20;;
29030;SDS011;16122;50.236;11.734;2024-03-08T02:55:00;7.77;;;6.87;;
29030;SDS011;16122;50.236;11.734;2024-03-08T02:57:33;7.50;;;6.70;;
29030;SDS011;16122;50.236;11.734;2024-03-08T02:59:59;8.47;;;7.20;;
29030;SDS011;16122;50.236;11.734;2024-03-08T03:02:25;8.07;;;7.30;;
29030;SDS011;16122;50.236;11.734;2024-03-08T03:04:52;9.23;;;6.97;;
29030;SDS011;16122;50.236;11.734;2024-03-08T03:07:18;8.80;;;7.63;;
29030;SDS011;16122;50.236;11.734;2024-03-08T03:09:44;8.83;;;7.33;;
29030;SDS011;16122;50.236;11.734;2024-03-08T03:12:10;7.83;;;6.90;;
29030;SDS011;16122;50.236;11.734;2024-03-08T03:14:36;7.93;;;7.17;;
29030;SDS011;16122;50.236;11.734;2024-03-08T03:17:05;8.33;;;7.53;;
29030;SDS011;16122;50.236;11.734;2024-03-08T03:19:31;7.60;;;6.37;;
29030;SDS011;16122;50.236;11.734;2024-03-08T03:21:56;8.77;;;6.70;;
29030;SDS011;16122;50.236;11.734;2024-03-08T03:24:22;9.20;;;7.40;;
29030;SDS011;16122;50.236;11.734;2024-03-08T03:26:48;7.63;;;6.33;;
29030;SDS011;16122;50.236;11.734;2024-03-08T03:29:15;8.23;;;7.43;;
29030;SDS011;16122;50.236;11.734;2024-03-08T03:31:42;7.97;;;6.70;;
29030;SDS011;16122;50.236;11.734;2024-03-08T03:34:12;8.03;;;7.23;;
29030;SDS011;16122;50.236;11.734;2024-03-08T03:36:38;8.30;;;7.43;;
29030;SDS011;16122;50.236;11.734;2024-03-08T03:39:08;7.77;;;6.97;;
29030;SDS011;16122;50.236;11.734;2024-03-08T03:41:44;7.87;;;7.07;;
29030;SDS011;16122;50.236;11.734;2024-03-08T03:44:11;8.50;;;7.40;;
29030;SDS011;16122;50.236;11.734;2024-03-08T03:46:37;8.33;;;7.53;;
29030;SDS011;16122;50.236;11.734;2024-03-08T03:49:09;6.63;;;5.93;;
29030;SDS011;16122;50.236;11.734;2024-03-08T03:51:35;7.20;;;6.47;;
29030;SDS011;16122;50.236;11.734;2024-03-08T03:54:00;8.33;;;6.43;;
29030;SDS011;16122;50.236;11.734;2024-03-08T03:56:28;8.83;;;7.70;;
29030;SDS011;16122;50.236;11.734;2024-03-08T03:58:55;9.00;;;7.60;;
29030;SDS011;16122;50.236;11.734;2024-03-08T04:01:21;7.60;;;6.80;;
29030;SDS011;16122;50.236;11.734;2024-03-08T04:03:48;10.00;;;7.37;;
29030;SDS011;16122;50.236;11.734;2024-03-08T04:06:14;7.67;;;6.87;;
29030;SDS011;16122;50.236;11.734;2024-03-08T04:08:40;8.50;;;6.80;;
29030;SDS011;16122;50.236;11.734;2024-03-08T04:11:06;7.53;;;6.83;;
29030;SDS011;16122;50.236;11.734;2024-03-08T04:13:33;7.93;;;7.23;;
29030;SDS011;16122;50.236;11.734;2024-03-08T04:15:59;6.40;;;5.80;;
29030;SDS011;16122;50.236;11.734;2024-03-08T04:18:25;7.50;;;6.80;;
29030;SDS011;16122;50.236;11.734;2024-03-08T04:20:51;8.03;;;6.93;;
29030;SDS011;16122;50.236;11.734;2024-03-08T04:23:18;7.70;;;6.50;;
29030;SDS011;16122;50.236;11.734;2024-03-08T04:25:44;8.20;;;6.60;;
29030;SDS011;16122;50.236;11.734;2024-03-08T04:28:10;7.23;;;6.50;;
29030;SDS011;16122;50.236;11.734;2024-03-08T04:30:39;7.23;;;6.43;;
29030;SDS011;16122;50.236;11.734;2024-03-08T04:33:05;7.17;;;6.43;;
29030;SDS011;16122;50.236;11.734;2024-03-08T04:35:34;7.47;;;6.77;;
29030;SDS011;16122;50.236;11.734;2024-03-08T04:38:00;8.00;;;7.20;;
29030;SDS011;16122;50.236;11.734;2024-03-08T04:40:26;7.03;;;6.33;;
29030;SDS011;16122;50.236;11.734;2024-03-08T04:42:52;8.40;;;7.00;;
29030;SDS011;16122;50.236;11.734;2024-03-08T04:45:18;8.63;;;7.07;;
29030;SDS011;16122;50.236;11.734;2024-03-08T04:47:44;7.73;;;6.97;;
29030;SDS011;16122;50.236;11.734;2024-03-08T04:50:10;7.27;;;6.50;;
29030;SDS011;16122;50.236;11.734;2024-03-08T04:52:36;7.07;;;6.37;;
29030;SDS011;16122;50.236;11.734;2024-03-08T04:55:02;7.87;;;6.70;;
29030;SDS011;16122;50.236;11.734;2024-03-08T04:57:31;8.20;;;6.53;;
29030;SDS011;16122;50.236;11.734;2024-03-08T04:59:57;6.63;;;6.00;;
29030;SDS011;16122;50.236;11.734;2024-03-08T05:02:24;7.63;;;6.93;;
29030;SDS011;16122;50.236;11.734;2024-03-08T05:04:50;7.73;;;6.60;;
29030;SDS011;16122;50.236;11.734;2024-03-08T05:07:16;7.03;;;6.20;;
29030;SDS011;16122;50.236;11.734;2024-03-08T05:09:42;6.87;;;6.00;;
29030;SDS011;16122;50.236;11.734;2024-03-08T05:12:08;9.03;;;6.80;;
29030;SDS011;16122;50.236;11.734;2024-03-08T05:14:33;8.63;;;7.03;;
29030;SDS011;16122;50.236;11.734;2024-03-08T05:17:00;8.03;;;7.00;;
29030;SDS011;16122;50.236;11.734;2024-03-08T05:19:26;8.60;;;6.50;;
29030;SDS011;16122;50.236;11.734;2024-03-08T05:21:55;7.30;;;6.60;;
29030;SDS011;16122;50.236;11.734;2024-03-08T05:24:21;7.73;;;6.87;;
29030;SDS011;16122;50.236;11.734;2024-03-08T05:26:46;6.93;;;6.20;;
29030;SDS011;16122;50.236;11.734;2024-03-08T05:29:12;7.23;;;6.47;;
29030;SDS011;16122;50.236;11.734;2024-03-08T05:34:12;7.23;;;6.47;;
29030;SDS011;16122;50.236;11.734;2024-03-08T05:36:39;9.50;;;6.80;;
29030;SDS011;16122;50.236;11.734;2024-03-08T05:39:08;7.77;;;6.97;;
29030;SDS011;16122;50.236;11.734;2024-03-08T05:41:37;7.63;;;6.47;;
29030;SDS011;16122;50.236;11.734;2024-03-08T05:44:04;8.50;;;6.30;;
29030;SDS011;16122;50.236;11.734;2024-03-08T05:46:30;7.90;;;6.90;;
29030;SDS011;16122;50.236;11.734;2024-03-08T05:48:56;9.17;;;7.83;;
29030;SDS011;16122;50.236;11.734;2024-03-08T05:51:23;7.83;;;7.03;;
29030;SDS011;16122;50.236;11.734;2024-03-08T05:53:51;8.97;;;6.80;;
29030;SDS011;16122;50.236;11.734;2024-03-08T05:56:18;7.70;;;6.87;;
29030;SDS011;16122;50.236;11.734;2024-03-08T05:58:44;7.13;;;6.50;;
29030;SDS011;16122;50.236;11.734;2024-03-08T06:01:10;8.17;;;7.27;;
29030;SDS011;16122;50.236;11.734;2024-03-08T06:03:38;8.90;;;6.30;;
29030;SDS011;16122;50.236;11.734;2024-03-08T06:06:13;8.43;;;7.20;;
29030;SDS011;16122;50.236;11.734;2024-03-08T06:08:39;8.23;;;6.90;;
29030;SDS011;16122;50.236;11.734;2024-03-08T06:11:08;8.20;;;6.40;;
29030;SDS011;16122;50.236;11.734;2024-03-08T06:13:34;7.10;;;6.40;;
29030;SDS011;16122;50.236;11.734;2024-03-08T06:16:00;7.10;;;6.40;;
29030;SDS011;16122;50.236;11.734;2024-03-08T06:18:30;8.00;;;7.20;;
29030;SDS011;16122;50.236;11.734;2024-03-08T06:20:56;7.23;;;6.53;;
29030;SDS011;16122;50.236;11.734;2024-03-08T06:23:22;6.83;;;6.10;;
29030;SDS011;16122;50.236;11.734;2024-03-08T06:25:48;6.43;;;5.83;;
29030;SDS011;16122;50.236;11.734;2024-03-08T06:28:14;8.17;;;6.20;;
29030;SDS011;16122;50.236;11.734;2024-03-08T06:30:40;7.37;;;6.67;;
29030;SDS011;16122;50.236;11.734;2024-03-08T06:33:06;6.97;;;6.20;;
29030;SDS011;16122;50.236;11.734;2024-03-08T06:35:36;6.40;;;5.80;;
29030;SDS011;16122;50.236;11.734;2024-03-08T06:38:03;7.20;;;6.50;;
29030;SDS011;16122;50.236;11.734;2024-03-08T06:40:30;7.90;;;6.47;;
29030;SDS011;16122;50.236;11.734;2024-03-08T06:42:55;6.40;;;5.80;;
29030;SDS011;16122;50.236;11.734;2024-03-08T06:45:22;7.33;;;6.63;;
29030;SDS011;16122;50.236;11.734;2024-03-08T06:47:49;9.07;;;7.13;;
29030;SDS011;16122;50.236;11.734;2024-03-08T06:50:15;6.93;;;6.10;;
29030;SDS011;16122;50.236;11.734;2024-03-08T06:52:41;7.47;;;6.23;;
29030;SDS011;16122;50.236;11.734;2024-03-08T06:55:11;6.50;;;5.90;;
29030;SDS011;16122;50.236;11.734;2024-03-08T06:57:40;6.97;;;6.27;;
29030;SDS011;16122;50.236;11.734;2024-03-08T07:00:07;6.53;;;5.93;;
29030;SDS011;16122;50.236;11.734;2024-03-08T07:02:40;6.63;;;5.93;;
29030;SDS011;16122;50.236;11.734;2024-03-08T07:05:07;8.40;;;6.70;;
29030;SDS011;16122;50.236;11.734;2024-03-08T07:07:35;7.20;;;6.07;;
29030;SDS011;16122;50.236;11.734;2024-03-08T07:10:02;6.43;;;5.53;;
29030;SDS011;16122;50.236;11.734;2024-03-08T07:12:28;6.60;;;5.93;;
29030;SDS011;16122;50.236;11.734;2024-03-08T07:14:54;7.40;;;6.70;;
29030;SDS011;16122;50.236;11.734;2024-03-08T07:17:20;6.90;;;5.90;;
29030;SDS011;16122;50.236;11.734;2024-03-08T07:19:46;6.50;;;5.50;;
29030;SDS011;16122;50.236;11.734;2024-03-08T07:22:12;8.40;;;7.10;;
29030;SDS011;16122;50.236;11.734;2024-03-08T07:24:39;7.40;;;6.70;;
29030;SDS011;16122;50.236;11.734;2024-03-08T07:27:25;6.33;;;5.70;;
29030;SDS011;16122;50.236;11.734;2024-03-08T07:29:51;6.93;;;6.23;;
29030;SDS011;16122;50.236;11.734;2024-03-08T07:32:17;6.83;;;5.87;;
29030;SDS011;16122;50.236;11.734;2024-03-08T07:34:50;7.60;;;6.03;;
29030;SDS011;16122;50.236;11.734;2024-03-08T07:37:17;6.27;;;5.67;;
29030;SDS011;16122;50.236;11.734;2024-03-08T07:39:44;6.90;;;5.60;;
29030;SDS011;16122;50.236;11.734;2024-03-08T07:42:10;6.57;;;6.00;;
29030;SDS011;16122;50.236;11.734;2024-03-08T07:44:36;7.63;;;6.87;;
29030;SDS011;16122;50.236;11.734;2024-03-08T07:47:02;9.10;;;6.50;;
29030;SDS011;16122;50.236;11.734;2024-03-08T07:49:29;7.60;;;6.57;;
29030;SDS011;16122;50.236;11.734;2024-03-08T07:51:55;7.23;;;6.50;;
29030;SDS011;16122;50.236;11.734;2024-03-08T07:54:21;7.60;;;6.50;;
29030;SDS011;16122;50.236;11.734;2024-03-08T07:56:47;8.77;;;6.67;;
29030;SDS011;16122;50.236;11.734;2024-03-08T07:59:13;7.90;;;5.87;;
29030;SDS011;16122;50.236;11.734;2024-03-08T08:01:39;7.10;;;5.93;;
29030;SDS011;16122;50.236;11.734;2024-03-08T08:04:06;8.30;;;7.20;;
29030;SDS011;16122;50.236;11.734;2024-03-08T08:06:31;7.87;;;6.67;;
29030;SDS011;16122;50.236;11.734;2024-03-08T08:08:59;7.00;;;6.30;;
29030;SDS011;16122;50.236;11.734;2024-03-08T08:11:28;7.70;;;6.90;;
29030;SDS011;16122;50.236;11.734;2024-03-08T08:13:54;12.40;;;7.30;;
29030;SDS011;16122;50.236;11.734;2024-03-08T08:16:22;6.87;;;6.17;;
29030;SDS011;16122;50.236;11.734;2024-03-08T08:18:48;7.10;;;6.27;;
29030;SDS011;16122;50.236;11.734;2024-03-08T08:21:15;8.97;;;6.80;;
29030;SDS011;16122;50.236;11.734;2024-03-08T08:23:41;8.17;;;7.37;;
29030;SDS011;16122;50.236;11.734;2024-03-08T08:26:06;8.17;;;6.73;;
29030;SDS011;16122;50.236;11.734;2024-03-08T08:28:33;8.60;;;6.93;;
29030;SDS011;16122;50.236;11.734;2024-03-08T08:30:58;8.50;;;7.23;;
29030;SDS011;16122;50.236;11.734;2024-03-08T08:33:24;8.30;;;7.50;;
29030;SDS011;16122;50.236;11.734;2024-03-08T08:35:51;9.53;;;8.37;;
29030;SDS011;16122;50.236;11.734;2024-03-08T08:38:19;13.67;;;8.70;;
29030;SDS011;16122;50.236;11.734;2024-03-08T08:40:45;19.73;;;10.50;;
29030;SDS011;16122;50.236;11.734;2024-03-08T08:43:12;25.03;;;13.03;;
29030;SDS011;16122;50.236;11.734;2024-03-08T08:45:39;27.17;;;13.60;;
29030;SDS011;16122;50.236;11.734;2024-03-08T08:48:05;30.03;;;14.60;;
29030;SDS011;16122;50.236;11.734;2024-03-08T08:50:31;30.47;;;16.60;;
29030;SDS011;16122;50.236;11.734;2024-03-08T08:52:57;32.57;;;17.37;;
29030;SDS011;16122;50.236;11.734;2024-03-08T08:55:23;36.57;;;16.83;;
29030;SDS011;16122;50.236;11.734;2024-03-08T08:57:53;31.03;;;17.50;;
29030;SDS011;16122;50.236;11.734;2024-03-08T09:00:19;32.53;;;16.40;;
29030;SDS011;16122;50.236;11.734;2024-03-08T09:02:45;33.10;;;17.37;;
29030;SDS011;16122;50.236;11.734;2024-03-08T09:05:12;34.07;;;17.20;;
29030;SDS011;16122;50.236;11.734;2024-03-08T09:07:45;34.87;;;18.00;;
29030;SDS011;16122;50.236;11.734;2024-03-08T09:10:10;32.07;;;16.80;;
29030;SDS011;16122;50.236;11.734;2024-03-08T09:12:40;29.27;;;15.60;;
29030;SDS011;16122;50.236;11.734;2024-03-08T09:15:06;28.70;;;15.23;;
29030;SDS011;16122;50.236;11.734;2024-03-08T09:17:38;25.60;;;15.40;;
29030;SDS011;16122;50.236;11.734;2024-03-08T09:20:07;29.30;;;14.17;;
29030;SDS011;16122;50.236;11.734;2024-03-08T09:22:34;30.60;;;16.30;;
29030;SDS011;16122;50.236;11.734;2024-03-08T09:25:00;25.07;;;14.83;;
29030;SDS011;16122;50.236;11.734;2024-03-08T09:27:26;25.53;;;14.10;;
29030;SDS011;16122;50.236;11.734;2024-03-08T09:29:53;18.83;;;13.30;;
29030;SDS011;16122;50.236;11.734;2024-03-08T09:32:20;22.60;;;12.43;;
29030;SDS011;16122;50.236;11.734;2024-03-08T09:34:47;26.77;;;14.50;;
29030;SDS011;16122;50.236;11.734;2024-03-08T09:37:14;20.97;;;13.33;;
29030;SDS011;16122;50.236;11.734;2024-03-08T09:39:39;24.63;;;13.23;;
29030;SDS011;16122;50.236;11.734;2024-03-08T09:42:05;22.23;;;13.13;;
29030;SDS011;16122;50.236;11.734;2024-03-08T09:44:31;19.87;;;12.10;;
29030;SDS011;16122;50.236;11.734;2024-03-08T09:47:00;21.60;;;13.07;;
29030;SDS011;16122;50.236;11.734;2024-03-08T09:49:27;16.80;;;11.50;;
29030;SDS011;16122;50.236;11.734;2024-03-08T09:51:54;19.43;;;12.50;;
29030;SDS011;16122;50.236;11.734;2024-03-08T09:54:21;18.17;;;11.50;;
29030;SDS011;16122;50.236;11.734;2024-03-08T09:56:47;19.77;;;11.90;;
29030;SDS011;16122;50.236;11.734;2024-03-08T09:59:15;21.20;;;11.60;;
29030;SDS011;16122;50.236;11.734;2024-03-08T10:01:53;17.93;;;11.73;;
29030;SDS011;16122;50.236;11.734;2024-03-08T10:04:24;14.30;;;11.10;;
29030;SDS011;16122;50.236;11.734;2024-03-08T10:06:51;16.70;;;11.63;;
29030;SDS011;16122;50.236;11.734;2024-03-08T10:09:17;17.83;;;11.13;;
29030;SDS011;16122;50.236;11.734;2024-03-08T10:11:43;15.70;;;11.43;;
29030;SDS011;16122;50.236;11.734;2024-03-08T10:14:10;17.03;;;11.50;;
29030;SDS011;16122;50.236;11.734;2024-03-08T10:16:37;13.30;;;10.70;;
29030;SDS011;16122;50.236;11.734;2024-03-08T10:19:03;17.03;;;11.70;;
29030;SDS011;16122;50.236;11.734;2024-03-08T10:21:31;15.90;;;11.87;;
29030;SDS011;16122;50.236;11.734;2024-03-08T10:23:58;17.60;;;10.73;;
29030;SDS011;16122;50.236;11.734;2024-03-08T10:26:24;15.27;;;10.50;;
29030;SDS011;16122;50.236;11.734;2024-03-08T10:28:51;18.03;;;11.77;;
29030;SDS011;16122;50.236;11.734;2024-03-08T10:31:20;12.80;;;10.03;;
29030;SDS011;16122;50.236;11.734;2024-03-08T10:33:46;13.97;;;9.67;;
29030;SDS011;16122;50.236;11.734;2024-03-08T10:36:13;13.90;;;9.87;;
29030;SDS011;16122;50.236;11.734;2024-03-08T10:38:40;14.97;;;9.90;;
29030;SDS011;16122;50.236;11.734;2024-03-08T10:41:11;13.90;;;9.87;;
29030;SDS011;16122;50.236;11.734;2024-03-08T10:43:52;13.27;;;10.40;;
29030;SDS011;16122;50.236;11.734;2024-03-08T10:49:17;13.53;;;10.20;;
29030;SDS011;16122;50.236;11.734;2024-03-08T10:51:49;15.30;;;10.50;;
29030;SDS011;16122;50.236;11.734;2024-03-08T10:54:17;14.70;;;9.30;;
29030;SDS011;16122;50.236;11.734;2024-03-08T10:56:46;14.20;;;9.10;;
29030;SDS011;16122;50.236;11.734;2024-03-08T10:59:15;12.60;;;9.37;;
29030;SDS011;16122;50.236;11.734;2024-03-08T11:01:42;11.20;;;8.70;;
29030;SDS011;16122;50.236;11.734;2024-03-08T11:04:08;13.80;;;9.40;;
29030;SDS011;16122;50.236;11.734;2024-03-08T11:09:04;12.27;;;9.60;;
29030;SDS011;16122;50.236;11.734;2024-03-08T11:11:42;13.57;;;9.90;;
29030;SDS011;16122;50.236;11.734;2024-03-08T11:14:42;14.30;;;10.30;;
29030;SDS011;16122;50.236;11.734;2024-03-08T11:17:13;12.30;;;9.50;;
29030;SDS011;16122;50.236;11.734;2024-03-08T11:19:44;11.70;;;9.03;;
29030;SDS011;16122;50.236;11.734;2024-03-08T11:22:20;12.23;;;8.60;;
29030;SDS011;16122;50.236;11.734;2024-03-08T11:24:49;11.70;;;9.40;;
29030;SDS011;16122;50.236;11.734;2024-03-08T11:27:15;12.30;;;8.60;;
29030;SDS011;16122;50.236;11.734;2024-03-08T11:29:41;10.23;;;8.40;;
29030;SDS011;16122;50.236;11.734;2024-03-08T11:34:36;11.73;;;8.50;;
29030;SDS011;16122;50.236;11.734;2024-03-08T11:37:05;10.80;;;9.70;;
29030;SDS011;16122;50.236;11.734;2024-03-08T11:39:38;13.00;;;9.50;;
29030;SDS011;16122;50.236;11.734;2024-03-08T11:42:12;12.03;;;9.40;;
29030;SDS011;16122;50.236;11.734;2024-03-08T11:44:38;10.43;;;8.70;;
29030;SDS011;16122;50.236;11.734;2024-03-08T11:47:10;11.80;;;9.30;;
29030;SDS011;16122;50.236;11.734;2024-03-08T11:49:37;9.70;;;8.30;;
29030;SDS011;16122;50.236;11.734;2024-03-08T11:52:04;16.33;;;8.97;;
29030;SDS011;16122;50.236;11.734;2024-03-08T11:54:30;10.50;;;8.57;;
29030;SDS011;16122;50.236;11.734;2024-03-08T11:56:56;13.93;;;9.03;;
29030;SDS011;16122;50.236;11.734;2024-03-08T11:59:28;9.50;;;8.10;;
29030;SDS011;16122;50.236;11.734;2024-03-08T12:01:59;13.63;;;9.53;;
29030;SDS011;16122;50.236;11.734;2024-03-08T12:04:30;10.00;;;8.33;;
29030;SDS011;16122;50.236;11.734;2024-03-08T12:06:59;14.07;;;9.50;;
29030;SDS011;16122;50.236;11.734;2024-03-08T12:09:28;10.30;;;8.83;;
29030;SDS011;16122;50.236;11.734;2024-03-08T12:11:55;11.67;;;8.97;;
29030;SDS011;16122;50.236;11.734;2024-03-08T12:14:23;13.23;;;9.00;;
29030;SDS011;16122;50.236;11.734;2024-03-08T12:16:50;11.37;;;8.50;;
29030;SDS011;16122;50.236;11.734;2024-03-08T12:19:17;10.27;;;8.50;;
29030;SDS011;16122;50.236;11.734;2024-03-08T12:21:43;9.70;;;8.60;;
29030;SDS011;16122;50.236;11.734;2024-03-08T12:24:14;10.43;;;8.90;;
29030;SDS011;16122;50.236;11.734;2024-03-08T12:26:45;14.40;;;9.10;;
29030;SDS011;16122;50.236;11.734;2024-03-08T12:29:25;10.37;;;8.70;;
29030;SDS011;16122;50.236;11.734;2024-03-08T12:31:53;10.57;;;8.00;;
29030;SDS011;16122;50.236;11.734;2024-03-08T12:34:21;11.63;;;8.67;;
29030;SDS011;16122;50.236;11.734;2024-03-08T12:36:47;10.30;;;8.60;;
29030;SDS011;16122;50.236;11.734;2024-03-08T12:39:16;10.50;;;7.97;;
29030;SDS011;16122;50.236;11.734;2024-03-08T12:41:43;9.20;;;7.60;;
29030;SDS011;16122;50.236;11.734;2024-03-08T12:44:09;10.10;;;8.77;;
29030;SDS011;16122;50.236;11.734;2024-03-08T12:46:39;9.67;;;8.27;;
29030;SDS011;16122;50.236;11.734;2024-03-08T12:49:08;10.73;;;8.40;;
29030;SDS011;16122;50.236;11.734;2024-03-08T12:51:35;9.70;;;7.53;;
29030;SDS011;16122;50.236;11.734;2024-03-08T12:54:04;9.57;;;7.53;;
29030;SDS011;16122;50.236;11.734;2024-03-08T12:56:32;11.03;;;7.97;;
29030;SDS011;16122;50.236;11.734;2024-03-08T12:58:59;11.77;;;8.00;;
29030;SDS011;16122;50.236;11.734;2024-03-08T13:01:26;8.57;;;6.97;;
29030;SDS011;16122;50.236;11.734;2024-03-08T13:03:52;7.47;;;6.73;;
29030;SDS011;16122;50.236;11.734;2024-03-08T13:06:19;9.17;;;7.13;;
29030;SDS011;16122;50.236;11.734;2024-03-08T13:08:52;8.03;;;7.20;;
29030;SDS011;16122;50.236;11.734;2024-03-08T13:11:19;9.33;;;6.40;;
29030;SDS011;16122;50.236;11.734;2024-03-08T13:13:45;8.60;;;6.63;;
29030;SDS011;16122;50.236;11.734;2024-03-08T13:16:11;8.57;;;7.53;;
29030;SDS011;16122;50.236;11.734;2024-03-08T13:18:40;11.90;;;7.63;;
29030;SDS011;16122;50.236;11.734;2024-03-08T13:21:10;9.37;;;7.83;;
29030;SDS011;16122;50.236;11.734;2024-03-08T13:23:37;8.80;;;7.70;;
29030;SDS011;16122;50.236;11.734;2024-03-08T13:26:09;10.90;;;7.30;;
29030;SDS011;16122;50.236;11.734;2024-03-08T13:28:43;9.27;;;7.80;;
29030;SDS011;16122;50.236;11.734;2024-03-08T13:31:10;10.23;;;7.70;;
29030;SDS011;16122;50.236;11.734;2024-03-08T13:33:36;9.07;;;6.90;;
29030;SDS011;16122;50.236;11.734;2024-03-08T13:36:05;9.13;;;7.83;;
29030;SDS011;16122;50.236;11.734;2024-03-08T13:38:34;9.53;;;7.30;;
29030;SDS011;16122;50.236;11.734;2024-03-08T13:41:01;8.83;;;7.90;;
29030;SDS011;16122;50.236;11.734;2024-03-08T13:43:28;9.23;;;8.27;;
29030;SDS011;16122;50.236;11.734;2024-03-08T13:45:55;11.00;;;8.73;;
29030;SDS011;16122;50.236;11.734;2024-03-08T13:48:21;8.10;;;7.07;;
29030;SDS011;16122;50.236;11.734;2024-03-08T13:50:48;9.60;;;7.80;;
29030;SDS011;16122;50.236;11.734;2024-03-08T13:53:15;10.10;;;7.57;;
29030;SDS011;16122;50.236;11.734;2024-03-08T13:55:41;7.87;;;7.07;;
29030;SDS011;16122;50.236;11.734;2024-03-08T13:58:06;9.47;;;7.20;;
29030;SDS011;16122;50.236;11.734;2024-03-08T14:00:37;8.93;;;7.23;;
29030;SDS011;16122;50.236;11.734;2024-03-08T14:03:03;7.97;;;7.17;;
29030;SDS011;16122;50.236;11.734;2024-03-08T14:05:31;7.50;;;6.73;;
29030;SDS011;16122;50.236;11.734;2024-03-08T14:08:00;8.10;;;7.10;;
29030;SDS011;16122;50.236;11.734;2024-03-08T14:10:29;8.83;;;6.97;;
29030;SDS011;16122;50.236;11.734;2024-03-08T14:12:57;8.27;;;7.43;;
29030;SDS011;16122;50.236;11.734;2024-03-08T14:15:23;8.63;;;7.70;;
29030;SDS011;16122;50.236;11.734;2024-03-08T14:17:53;10.57;;;7.53;;
29030;SDS011;16122;50.236;11.734;2024-03-08T14:20:20;9.83;;;7.20;;
29030;SDS011;16122;50.236;11.734;2024-03-08T14:22:56;7.03;;;6.33;;
29030;SDS011;16122;50.236;11.734;2024-03-08T14:25:25;8.20;;;6.93;;
29030;SDS011;16122;50.236;11.734;2024-03-08T14:27:51;12.80;;;7.90;;
29030;SDS011;16122;50.236;11.734;2024-03-08T14:30:19;8.00;;;7.20;;
29030;SDS011;16122;50.236;11.734;2024-03-08T14:32:58;8.00;;;7.00;;
29030;SDS011;16122;50.236;11.734;2024-03-08T14:35:27;8.00;;;7.20;;
29030;SDS011;16122;50.236;11.734;2024-03-08T14:37:55;8.60;;;7.43;;
29030;SDS011;16122;50.236;11.734;2024-03-08T14:40:22;7.87;;;6.83;;
29030;SDS011;16122;50.236;11.734;2024-03-08T14:42:52;8.50;;;6.70;;
29030;SDS011;16122;50.236;11.734;2024-03-08T14:45:18;10.33;;;6.60;;